sensor_id;sensor_type;location;lat;lon;timestamp;P1;durP1;ratioP1;P2;durP2;ratioP2
29280;SDS011;25048;49.590;11.026;2022-08-19T00:01:55;21.75;;;19.17;;
29280;SDS011;25048;49.590;11.026;2022-08-19T00:04:26;21.95;;;17.60;;
29280;SDS011;25048;49.590;11.026;2022-08-19T00:06:54;22.87;;;19.07;;
29280;SDS011;25048;49.590;11.026;2022-08-19T00:09:22;22.48;;;19.67;;
29280;SDS011;25048;49.590;11.026;2022-08-19T00:11:51;25.05;;;19.10;;
29280;SDS011;25048;49.590;11.026;2022-08-19T00:14:21;25.25;;;20.00;;
29280;SDS011;25048;49.590;11.026;2022-08-19T00:16:50;24.65;;;19.15;;
29280;SDS011;25048;49.590;11.026;2022-08-19T00:19:19;20.43;;;18.30;;
29280;SDS011;25048;49.590;11.026;2022-08-19T00:21:48;24.23;;;20.02;;
29280;SDS011;25048;49.590;11.026;2022-08-19T00:24:15;24.37;;;21.42;;
29280;SDS011;25048;49.590;11.026;2022-08-19T00:26:43;26.05;;;20.08;;
29280;SDS011;25048;49.590;11.026;2022-08-19T00:29:12;22.85;;;19.87;;
29280;SDS011;25048;49.590;11.026;2022-08-19T00:31:42;20.60;;;17.87;;
29280;SDS011;25048;49.590;11.026;2022-08-19T00:34:10;23.87;;;20.72;;
29280;SDS011;25048;49.590;11.026;2022-08-19T00:36:44;23.10;;;19.27;;
29280;SDS011;25048;49.590;11.026;2022-08-19T00:39:08;26.40;;;21.15;;
29280;SDS011;25048;49.590;11.026;2022-08-19T00:41:37;23.52;;;19.55;;
29280;SDS011;25048;49.590;11.026;2022-08-19T00:44:13;23.07;;;19.42;;
29280;SDS011;25048;49.590;11.026;2022-08-19T00:46:39;24.12;;;20.02;;
29280;SDS011;25048;49.590;11.026;2022-08-19T00:49:09;26.87;;;21.20;;
29280;SDS011;25048;49.590;11.026;2022-08-19T00:51:43;28.57;;;20.68;;
29280;SDS011;25048;49.590;11.026;2022-08-19T00:54:12;29.70;;;23.00;;
29280;SDS011;25048;49.590;11.026;2022-08-19T00:56:41;24.18;;;20.17;;
29280;SDS011;25048;49.590;11.026;2022-08-19T00:59:09;27.67;;;20.77;;
29280;SDS011;25048;49.590;11.026;2022-08-19T01:01:38;26.07;;;21.37;;
29280;SDS011;25048;49.590;11.026;2022-08-19T01:04:07;25.27;;;20.90;;
29280;SDS011;25048;49.590;11.026;2022-08-19T01:06:35;25.30;;;21.12;;
29280;SDS011;25048;49.590;11.026;2022-08-19T01:09:05;26.30;;;22.27;;
29280;SDS011;25048;49.590;11.026;2022-08-19T01:11:33;27.62;;;21.33;;
29280;SDS011;25048;49.590;11.026;2022-08-19T01:14:03;27.40;;;21.48;;
29280;SDS011;25048;49.590;11.026;2022-08-19T01:16:32;26.93;;;20.97;;
29280;SDS011;25048;49.590;11.026;2022-08-19T01:19:01;27.95;;;21.30;;
29280;SDS011;25048;49.590;11.026;2022-08-19T01:21:31;25.37;;;21.35;;
29280;SDS011;25048;49.590;11.026;2022-08-19T01:24:06;26.80;;;21.52;;
29280;SDS011;25048;49.590;11.026;2022-08-19T01:26:38;25.70;;;20.25;;
29280;SDS011;25048;49.590;11.026;2022-08-19T01:29:09;25.25;;;21.65;;
29280;SDS011;25048;49.590;11.026;2022-08-19T01:31:37;30.65;;;21.45;;
29280;SDS011;25048;49.590;11.026;2022-08-19T01:34:05;24.50;;;19.87;;
29280;SDS011;25048;49.590;11.026;2022-08-19T01:36:40;24.95;;;19.77;;
29280;SDS011;25048;49.590;11.026;2022-08-19T01:39:05;26.00;;;20.80;;
29280;SDS011;25048;49.590;11.026;2022-08-19T01:41:34;25.68;;;21.70;;
29280;SDS011;25048;49.590;11.026;2022-08-19T01:44:02;27.27;;;20.85;;
29280;SDS011;25048;49.590;11.026;2022-08-19T01:46:31;26.27;;;20.95;;
29280;SDS011;25048;49.590;11.026;2022-08-19T01:48:59;29.30;;;21.82;;
29280;SDS011;25048;49.590;11.026;2022-08-19T01:51:28;26.82;;;21.62;;
29280;SDS011;25048;49.590;11.026;2022-08-19T01:53:56;27.25;;;21.57;;
29280;SDS011;25048;49.590;11.026;2022-08-19T01:56:24;26.05;;;20.80;;
29280;SDS011;25048;49.590;11.026;2022-08-19T01:58:58;27.00;;;20.95;;
29280;SDS011;25048;49.590;11.026;2022-08-19T02:01:26;29.37;;;20.55;;
29280;SDS011;25048;49.590;11.026;2022-08-19T02:03:55;26.90;;;22.32;;
29280;SDS011;25048;49.590;11.026;2022-08-19T02:06:23;27.05;;;21.05;;
29280;SDS011;25048;49.590;11.026;2022-08-19T02:08:50;28.00;;;22.00;;
29280;SDS011;25048;49.590;11.026;2022-08-19T02:11:23;26.48;;;21.62;;
29280;SDS011;25048;49.590;11.026;2022-08-19T02:13:52;29.07;;;22.42;;
29280;SDS011;25048;49.590;11.026;2022-08-19T02:16:21;26.97;;;21.55;;
29280;SDS011;25048;49.590;11.026;2022-08-19T02:18:49;26.10;;;21.90;;
29280;SDS011;25048;49.590;11.026;2022-08-19T02:21:17;28.27;;;22.27;;
29280;SDS011;25048;49.590;11.026;2022-08-19T02:23:47;28.77;;;23.92;;
29280;SDS011;25048;49.590;11.026;2022-08-19T02:26:15;30.12;;;23.22;;
29280;SDS011;25048;49.590;11.026;2022-08-19T02:28:44;26.90;;;21.55;;
29280;SDS011;25048;49.590;11.026;2022-08-19T02:31:12;28.85;;;20.70;;
29280;SDS011;25048;49.590;11.026;2022-08-19T02:33:43;28.17;;;23.12;;
29280;SDS011;25048;49.590;11.026;2022-08-19T02:36:12;24.45;;;21.15;;
29280;SDS011;25048;49.590;11.026;2022-08-19T02:38:41;27.75;;;22.52;;
29280;SDS011;25048;49.590;11.026;2022-08-19T02:41:14;27.52;;;20.65;;
29280;SDS011;25048;49.590;11.026;2022-08-19T02:43:44;33.75;;;24.30;;
29280;SDS011;25048;49.590;11.026;2022-08-19T02:46:16;33.25;;;22.98;;
29280;SDS011;25048;49.590;11.026;2022-08-19T02:48:50;26.42;;;22.52;;
29280;SDS011;25048;49.590;11.026;2022-08-19T02:51:25;34.15;;;24.12;;
29280;SDS011;25048;49.590;11.026;2022-08-19T02:53:50;31.37;;;22.37;;
29280;SDS011;25048;49.590;11.026;2022-08-19T02:56:18;31.50;;;22.95;;
29280;SDS011;25048;49.590;11.026;2022-08-19T02:58:47;26.25;;;21.30;;
29280;SDS011;25048;49.590;11.026;2022-08-19T03:01:28;25.43;;;21.40;;
29280;SDS011;25048;49.590;11.026;2022-08-19T03:03:58;29.95;;;23.73;;
29280;SDS011;25048;49.590;11.026;2022-08-19T03:06:26;26.52;;;22.20;;
29280;SDS011;25048;49.590;11.026;2022-08-19T03:08:56;27.87;;;23.05;;
29280;SDS011;25048;49.590;11.026;2022-08-19T03:11:28;32.83;;;23.80;;
29280;SDS011;25048;49.590;11.026;2022-08-19T03:13:57;31.73;;;24.02;;
29280;SDS011;25048;49.590;11.026;2022-08-19T03:16:26;31.25;;;23.67;;
29280;SDS011;25048;49.590;11.026;2022-08-19T03:18:56;26.75;;;21.07;;
29280;SDS011;25048;49.590;11.026;2022-08-19T03:21:29;28.77;;;23.02;;
29280;SDS011;25048;49.590;11.026;2022-08-19T03:23:59;29.95;;;23.98;;
29280;SDS011;25048;49.590;11.026;2022-08-19T03:26:29;30.95;;;23.02;;
29280;SDS011;25048;49.590;11.026;2022-08-19T03:28:57;27.77;;;22.00;;
29280;SDS011;25048;49.590;11.026;2022-08-19T03:31:26;31.27;;;22.45;;
29280;SDS011;25048;49.590;11.026;2022-08-19T03:33:54;31.50;;;22.98;;
29280;SDS011;25048;49.590;11.026;2022-08-19T03:36:22;30.82;;;23.45;;
29280;SDS011;25048;49.590;11.026;2022-08-19T03:38:53;30.52;;;22.42;;
29280;SDS011;25048;49.590;11.026;2022-08-19T03:41:25;32.13;;;25.15;;
29280;SDS011;25048;49.590;11.026;2022-08-19T03:43:54;28.30;;;22.93;;
29280;SDS011;25048;49.590;11.026;2022-08-19T03:46:27;31.17;;;24.12;;
29280;SDS011;25048;49.590;11.026;2022-08-19T03:48:56;32.65;;;24.20;;
29280;SDS011;25048;49.590;11.026;2022-08-19T03:51:27;33.05;;;22.90;;
29280;SDS011;25048;49.590;11.026;2022-08-19T03:53:57;30.52;;;24.00;;
29280;SDS011;25048;49.590;11.026;2022-08-19T03:56:26;31.15;;;23.73;;
29280;SDS011;25048;49.590;11.026;2022-08-19T03:58:55;34.80;;;24.47;;
29280;SDS011;25048;49.590;11.026;2022-08-19T04:01:26;32.28;;;23.27;;
29280;SDS011;25048;49.590;11.026;2022-08-19T04:03:55;33.13;;;25.72;;
29280;SDS011;25048;49.590;11.026;2022-08-19T04:06:25;32.65;;;25.27;;
29280;SDS011;25048;49.590;11.026;2022-08-19T04:08:56;35.75;;;26.35;;
29280;SDS011;25048;49.590;11.026;2022-08-19T04:11:26;37.95;;;27.58;;
29280;SDS011;25048;49.590;11.026;2022-08-19T04:13:55;35.70;;;26.77;;
29280;SDS011;25048;49.590;11.026;2022-08-19T04:16:24;37.35;;;26.55;;
29280;SDS011;25048;49.590;11.026;2022-08-19T04:18:55;35.58;;;25.27;;
29280;SDS011;25048;49.590;11.026;2022-08-19T04:21:25;35.48;;;25.85;;
29280;SDS011;25048;49.590;11.026;2022-08-19T04:23:54;38.20;;;26.65;;
29280;SDS011;25048;49.590;11.026;2022-08-19T04:26:24;35.75;;;25.85;;
29280;SDS011;25048;49.590;11.026;2022-08-19T04:29:13;41.53;;;28.00;;
29280;SDS011;25048;49.590;11.026;2022-08-19T04:31:43;37.55;;;25.02;;
29280;SDS011;25048;49.590;11.026;2022-08-19T04:34:13;36.00;;;25.70;;
29280;SDS011;25048;49.590;11.026;2022-08-19T04:36:43;40.12;;;27.20;;
29280;SDS011;25048;49.590;11.026;2022-08-19T04:39:13;38.15;;;26.73;;
29280;SDS011;25048;49.590;11.026;2022-08-19T04:41:42;41.70;;;28.02;;
29280;SDS011;25048;49.590;11.026;2022-08-19T04:44:28;42.78;;;26.52;;
29280;SDS011;25048;49.590;11.026;2022-08-19T04:46:58;40.00;;;27.80;;
29280;SDS011;25048;49.590;11.026;2022-08-19T04:49:26;38.13;;;26.87;;
29280;SDS011;25048;49.590;11.026;2022-08-19T04:51:55;39.53;;;27.98;;
29280;SDS011;25048;49.590;11.026;2022-08-19T04:54:23;36.33;;;24.98;;
29280;SDS011;25048;49.590;11.026;2022-08-19T04:56:52;35.08;;;26.73;;
29280;SDS011;25048;49.590;11.026;2022-08-19T04:59:20;37.53;;;26.40;;
29280;SDS011;25048;49.590;11.026;2022-08-19T05:01:48;36.38;;;25.60;;
29280;SDS011;25048;49.590;11.026;2022-08-19T05:04:17;40.43;;;27.82;;
29280;SDS011;25048;49.590;11.026;2022-08-19T05:06:47;40.67;;;28.23;;
29280;SDS011;25048;49.590;11.026;2022-08-19T05:09:15;36.93;;;25.72;;
29280;SDS011;25048;49.590;11.026;2022-08-19T05:11:43;38.35;;;25.17;;
29280;SDS011;25048;49.590;11.026;2022-08-19T05:14:11;41.98;;;28.92;;
29280;SDS011;25048;49.590;11.026;2022-08-19T05:16:39;38.20;;;26.40;;
29280;SDS011;25048;49.590;11.026;2022-08-19T05:19:07;38.13;;;26.55;;
29280;SDS011;25048;49.590;11.026;2022-08-19T05:21:53;37.33;;;26.05;;
29280;SDS011;25048;49.590;11.026;2022-08-19T05:24:39;37.60;;;26.07;;
29280;SDS011;25048;49.590;11.026;2022-08-19T05:27:06;37.98;;;24.65;;
29280;SDS011;25048;49.590;11.026;2022-08-19T05:29:34;37.83;;;26.35;;
29280;SDS011;25048;49.590;11.026;2022-08-19T05:32:03;39.85;;;26.25;;
29280;SDS011;25048;49.590;11.026;2022-08-19T05:34:33;35.00;;;25.48;;
29280;SDS011;25048;49.590;11.026;2022-08-19T05:37:01;35.20;;;25.65;;
29280;SDS011;25048;49.590;11.026;2022-08-19T05:39:30;36.30;;;25.08;;
29280;SDS011;25048;49.590;11.026;2022-08-19T05:42:01;32.58;;;23.52;;
29280;SDS011;25048;49.590;11.026;2022-08-19T05:44:31;34.67;;;25.20;;
29280;SDS011;25048;49.590;11.026;2022-08-19T05:47:01;36.60;;;25.27;;
29280;SDS011;25048;49.590;11.026;2022-08-19T05:49:30;39.20;;;26.35;;
29280;SDS011;25048;49.590;11.026;2022-08-19T05:52:01;36.58;;;24.98;;
29280;SDS011;25048;49.590;11.026;2022-08-19T05:54:30;35.60;;;24.70;;
29280;SDS011;25048;49.590;11.026;2022-08-19T05:56:58;34.73;;;24.18;;
29280;SDS011;25048;49.590;11.026;2022-08-19T05:59:27;35.13;;;24.40;;
29280;SDS011;25048;49.590;11.026;2022-08-19T06:01:55;32.58;;;23.95;;
29280;SDS011;25048;49.590;11.026;2022-08-19T06:04:23;32.48;;;25.10;;
29280;SDS011;25048;49.590;11.026;2022-08-19T06:06:52;32.55;;;23.38;;
29280;SDS011;25048;49.590;11.026;2022-08-19T06:09:20;31.27;;;22.90;;
29280;SDS011;25048;49.590;11.026;2022-08-19T06:11:50;31.82;;;23.25;;
29280;SDS011;25048;49.590;11.026;2022-08-19T06:14:26;32.25;;;23.15;;
29280;SDS011;25048;49.590;11.026;2022-08-19T06:16:56;33.28;;;23.83;;
29280;SDS011;25048;49.590;11.026;2022-08-19T06:19:26;30.52;;;22.45;;
29280;SDS011;25048;49.590;11.026;2022-08-19T06:21:56;32.55;;;23.47;;
29280;SDS011;25048;49.590;11.026;2022-08-19T06:24:26;29.95;;;21.87;;
29280;SDS011;25048;49.590;11.026;2022-08-19T06:26:56;29.52;;;21.52;;
29280;SDS011;25048;49.590;11.026;2022-08-19T06:29:25;30.20;;;22.17;;
29280;SDS011;25048;49.590;11.026;2022-08-19T06:31:56;34.98;;;24.23;;
29280;SDS011;25048;49.590;11.026;2022-08-19T06:34:26;32.60;;;22.45;;
29280;SDS011;25048;49.590;11.026;2022-08-19T06:36:55;31.65;;;23.60;;
29280;SDS011;25048;49.590;11.026;2022-08-19T06:39:26;34.65;;;23.90;;
29280;SDS011;25048;49.590;11.026;2022-08-19T06:41:57;35.78;;;24.75;;
29280;SDS011;25048;49.590;11.026;2022-08-19T06:44:27;35.28;;;24.30;;
29280;SDS011;25048;49.590;11.026;2022-08-19T06:46:58;31.75;;;23.60;;
29280;SDS011;25048;49.590;11.026;2022-08-19T06:49:28;35.85;;;23.70;;
29280;SDS011;25048;49.590;11.026;2022-08-19T06:51:56;30.37;;;23.60;;
29280;SDS011;25048;49.590;11.026;2022-08-19T06:54:25;31.97;;;22.75;;
29280;SDS011;25048;49.590;11.026;2022-08-19T06:56:57;30.05;;;22.42;;
29280;SDS011;25048;49.590;11.026;2022-08-19T06:59:28;36.17;;;24.35;;
29280;SDS011;25048;49.590;11.026;2022-08-19T07:01:58;34.40;;;24.25;;
29280;SDS011;25048;49.590;11.026;2022-08-19T07:04:30;35.75;;;23.52;;
29280;SDS011;25048;49.590;11.026;2022-08-19T07:06:59;30.52;;;23.67;;
29280;SDS011;25048;49.590;11.026;2022-08-19T07:09:34;35.88;;;24.57;;
29280;SDS011;25048;49.590;11.026;2022-08-19T07:12:04;30.95;;;21.80;;
29280;SDS011;25048;49.590;11.026;2022-08-19T07:14:35;34.78;;;24.27;;
29280;SDS011;25048;49.590;11.026;2022-08-19T07:17:05;31.52;;;23.32;;
29280;SDS011;25048;49.590;11.026;2022-08-19T07:19:34;30.10;;;22.85;;
29280;SDS011;25048;49.590;11.026;2022-08-19T07:22:03;29.63;;;22.73;;
29280;SDS011;25048;49.590;11.026;2022-08-19T07:24:33;34.60;;;23.30;;
29280;SDS011;25048;49.590;11.026;2022-08-19T07:27:02;32.30;;;23.07;;
29280;SDS011;25048;49.590;11.026;2022-08-19T07:29:32;30.77;;;22.85;;
29280;SDS011;25048;49.590;11.026;2022-08-19T07:32:01;29.98;;;22.52;;
29280;SDS011;25048;49.590;11.026;2022-08-19T07:34:31;35.15;;;21.45;;
29280;SDS011;25048;49.590;11.026;2022-08-19T07:37:06;30.20;;;22.67;;
29280;SDS011;25048;49.590;11.026;2022-08-19T07:39:35;31.40;;;23.32;;
29280;SDS011;25048;49.590;11.026;2022-08-19T07:42:05;31.48;;;22.52;;
29280;SDS011;25048;49.590;11.026;2022-08-19T07:44:34;30.80;;;22.60;;
29280;SDS011;25048;49.590;11.026;2022-08-19T07:47:03;31.37;;;22.52;;
29280;SDS011;25048;49.590;11.026;2022-08-19T07:49:32;29.27;;;22.20;;
29280;SDS011;25048;49.590;11.026;2022-08-19T07:52:03;28.90;;;22.30;;
29280;SDS011;25048;49.590;11.026;2022-08-19T07:54:31;33.50;;;22.17;;
29280;SDS011;25048;49.590;11.026;2022-08-19T07:57:01;29.02;;;21.40;;
29280;SDS011;25048;49.590;11.026;2022-08-19T07:59:30;27.58;;;20.92;;
29280;SDS011;25048;49.590;11.026;2022-08-19T08:01:58;29.80;;;21.55;;
29280;SDS011;25048;49.590;11.026;2022-08-19T08:04:26;28.38;;;21.50;;
29280;SDS011;25048;49.590;11.026;2022-08-19T08:07:13;36.45;;;22.80;;
29280;SDS011;25048;49.590;11.026;2022-08-19T08:09:59;33.15;;;22.82;;
29280;SDS011;25048;49.590;11.026;2022-08-19T08:12:29;32.50;;;22.95;;
29280;SDS011;25048;49.590;11.026;2022-08-19T08:14:58;31.20;;;22.10;;
29280;SDS011;25048;49.590;11.026;2022-08-19T08:17:30;40.08;;;24.18;;
29280;SDS011;25048;49.590;11.026;2022-08-19T08:19:59;31.85;;;23.12;;
29280;SDS011;25048;49.590;11.026;2022-08-19T08:22:28;32.23;;;22.45;;
29280;SDS011;25048;49.590;11.026;2022-08-19T08:25:15;32.73;;;22.20;;
29280;SDS011;25048;49.590;11.026;2022-08-19T08:27:45;30.50;;;21.95;;
29280;SDS011;25048;49.590;11.026;2022-08-19T08:30:15;32.53;;;22.07;;
29280;SDS011;25048;49.590;11.026;2022-08-19T08:32:44;31.37;;;21.82;;
29280;SDS011;25048;49.590;11.026;2022-08-19T08:35:14;33.10;;;21.02;;
29280;SDS011;25048;49.590;11.026;2022-08-19T08:37:44;27.00;;;21.20;;
29280;SDS011;25048;49.590;11.026;2022-08-19T08:45:49;27.32;;;18.05;;
29280;SDS011;25048;49.590;11.026;2022-08-19T08:48:20;23.80;;;17.67;;
29280;SDS011;25048;49.590;11.026;2022-08-19T08:51:05;23.87;;;17.27;;
29280;SDS011;25048;49.590;11.026;2022-08-19T08:53:34;24.87;;;18.35;;
29280;SDS011;25048;49.590;11.026;2022-08-19T08:56:04;23.95;;;17.73;;
29280;SDS011;25048;49.590;11.026;2022-08-19T08:58:40;21.93;;;17.25;;
29280;SDS011;25048;49.590;11.026;2022-08-19T09:01:19;21.00;;;16.90;;
29280;SDS011;25048;49.590;11.026;2022-08-19T09:03:46;24.98;;;17.65;;
29280;SDS011;25048;49.590;11.026;2022-08-19T09:06:19;23.52;;;17.75;;
29280;SDS011;25048;49.590;11.026;2022-08-19T09:09:04;26.82;;;18.77;;
29280;SDS011;25048;49.590;11.026;2022-08-19T09:14:32;22.75;;;17.87;;
29280;SDS011;25048;49.590;11.026;2022-08-19T09:16:50;25.82;;;18.45;;
29280;SDS011;25048;49.590;11.026;2022-08-19T09:19:17;26.95;;;20.15;;
29280;SDS011;25048;49.590;11.026;2022-08-19T09:21:45;26.82;;;18.95;;
29280;SDS011;25048;49.590;11.026;2022-08-19T09:24:13;30.35;;;19.87;;
29280;SDS011;25048;49.590;11.026;2022-08-19T09:26:41;29.40;;;19.55;;
29280;SDS011;25048;49.590;11.026;2022-08-19T09:29:09;29.10;;;20.27;;
29280;SDS011;25048;49.590;11.026;2022-08-19T09:31:37;25.85;;;19.35;;
29280;SDS011;25048;49.590;11.026;2022-08-19T09:34:05;25.25;;;19.45;;
29280;SDS011;25048;49.590;11.026;2022-08-19T09:36:34;26.93;;;18.75;;
29280;SDS011;25048;49.590;11.026;2022-08-19T09:39:03;27.70;;;19.60;;
29280;SDS011;25048;49.590;11.026;2022-08-19T09:41:32;25.30;;;18.67;;
29280;SDS011;25048;49.590;11.026;2022-08-19T09:44:00;24.55;;;18.52;;
29280;SDS011;25048;49.590;11.026;2022-08-19T09:46:28;23.40;;;18.07;;
29280;SDS011;25048;49.590;11.026;2022-08-19T09:48:57;25.55;;;18.27;;
29280;SDS011;25048;49.590;11.026;2022-08-19T09:51:26;24.80;;;18.23;;
29280;SDS011;25048;49.590;11.026;2022-08-19T09:53:58;25.27;;;18.60;;
29280;SDS011;25048;49.590;11.026;2022-08-19T09:56:28;22.98;;;18.67;;
29280;SDS011;25048;49.590;11.026;2022-08-19T09:59:00;24.63;;;17.48;;
29280;SDS011;25048;49.590;11.026;2022-08-19T10:01:30;23.32;;;17.52;;
29280;SDS011;25048;49.590;11.026;2022-08-19T10:03:58;23.62;;;17.75;;
29280;SDS011;25048;49.590;11.026;2022-08-19T10:06:29;25.95;;;18.27;;
29280;SDS011;25048;49.590;11.026;2022-08-19T10:09:00;23.30;;;17.10;;
29280;SDS011;25048;49.590;11.026;2022-08-19T10:11:30;24.63;;;17.85;;
29280;SDS011;25048;49.590;11.026;2022-08-19T10:13:58;21.57;;;17.20;;
29280;SDS011;25048;49.590;11.026;2022-08-19T10:16:26;22.82;;;16.67;;
29280;SDS011;25048;49.590;11.026;2022-08-19T10:18:53;23.62;;;16.62;;
29280;SDS011;25048;49.590;11.026;2022-08-19T10:21:24;22.87;;;17.12;;
29280;SDS011;25048;49.590;11.026;2022-08-19T10:23:57;23.18;;;18.27;;
29280;SDS011;25048;49.590;11.026;2022-08-19T10:26:31;22.98;;;16.10;;
29280;SDS011;25048;49.590;11.026;2022-08-19T10:28:59;20.57;;;15.63;;
29280;SDS011;25048;49.590;11.026;2022-08-19T10:31:29;20.95;;;15.35;;
29280;SDS011;25048;49.590;11.026;2022-08-19T10:33:57;19.80;;;15.25;;
29280;SDS011;25048;49.590;11.026;2022-08-19T10:36:27;20.23;;;14.95;;
29280;SDS011;25048;49.590;11.026;2022-08-19T10:38:57;16.77;;;14.53;;
29280;SDS011;25048;49.590;11.026;2022-08-19T10:41:28;21.40;;;15.80;;
29280;SDS011;25048;49.590;11.026;2022-08-19T10:44:00;17.37;;;14.20;;
29280;SDS011;25048;49.590;11.026;2022-08-19T10:46:32;19.02;;;15.48;;
29280;SDS011;25048;49.590;11.026;2022-08-19T10:49:02;21.42;;;16.05;;
29280;SDS011;25048;49.590;11.026;2022-08-19T10:51:31;20.45;;;15.30;;
29280;SDS011;25048;49.590;11.026;2022-08-19T10:54:17;19.17;;;15.23;;
29280;SDS011;25048;49.590;11.026;2022-08-19T10:56:45;18.10;;;14.38;;
29280;SDS011;25048;49.590;11.026;2022-08-19T10:59:20;19.82;;;15.38;;
29280;SDS011;25048;49.590;11.026;2022-08-19T11:01:50;19.27;;;15.03;;
29280;SDS011;25048;49.590;11.026;2022-08-19T11:04:18;24.80;;;15.15;;
29280;SDS011;25048;49.590;11.026;2022-08-19T11:06:48;18.75;;;13.55;;
29280;SDS011;25048;49.590;11.026;2022-08-19T11:09:19;18.15;;;15.23;;
29280;SDS011;25048;49.590;11.026;2022-08-19T11:11:51;20.05;;;15.68;;
29280;SDS011;25048;49.590;11.026;2022-08-19T11:14:19;16.77;;;14.60;;
29280;SDS011;25048;49.590;11.026;2022-08-19T11:16:49;19.30;;;14.23;;
29280;SDS011;25048;49.590;11.026;2022-08-19T11:19:19;19.55;;;14.90;;
29280;SDS011;25048;49.590;11.026;2022-08-19T11:21:49;19.05;;;14.35;;
29280;SDS011;25048;49.590;11.026;2022-08-19T11:24:20;20.72;;;14.05;;
29280;SDS011;25048;49.590;11.026;2022-08-19T11:26:50;16.05;;;12.68;;
29280;SDS011;25048;49.590;11.026;2022-08-19T11:29:21;20.72;;;14.95;;
29280;SDS011;25048;49.590;11.026;2022-08-19T11:31:51;16.73;;;14.30;;
29280;SDS011;25048;49.590;11.026;2022-08-19T11:34:20;18.37;;;14.75;;
29280;SDS011;25048;49.590;11.026;2022-08-19T11:36:50;15.93;;;13.90;;
29280;SDS011;25048;49.590;11.026;2022-08-19T11:39:19;19.15;;;13.05;;
29280;SDS011;25048;49.590;11.026;2022-08-19T11:41:48;15.58;;;12.90;;
29280;SDS011;25048;49.590;11.026;2022-08-19T11:44:15;14.87;;;13.28;;
29280;SDS011;25048;49.590;11.026;2022-08-19T11:46:44;19.30;;;15.45;;
29280;SDS011;25048;49.590;11.026;2022-08-19T11:49:13;15.65;;;13.93;;
29280;SDS011;25048;49.590;11.026;2022-08-19T11:51:44;15.53;;;13.68;;
29280;SDS011;25048;49.590;11.026;2022-08-19T11:54:13;20.32;;;15.63;;
29280;SDS011;25048;49.590;11.026;2022-08-19T11:56:43;22.05;;;16.52;;
29280;SDS011;25048;49.590;11.026;2022-08-19T11:59:11;23.15;;;15.95;;
29280;SDS011;25048;49.590;11.026;2022-08-19T12:01:40;25.43;;;18.57;;
29280;SDS011;25048;49.590;11.026;2022-08-19T12:04:08;24.00;;;18.17;;
29280;SDS011;25048;49.590;11.026;2022-08-19T12:06:37;24.77;;;18.62;;
29280;SDS011;25048;49.590;11.026;2022-08-19T12:09:07;29.42;;;19.10;;
29280;SDS011;25048;49.590;11.026;2022-08-19T12:11:35;29.82;;;21.50;;
29280;SDS011;25048;49.590;11.026;2022-08-19T12:14:04;27.70;;;21.93;;
29280;SDS011;25048;49.590;11.026;2022-08-19T12:16:34;26.00;;;20.25;;
29280;SDS011;25048;49.590;11.026;2022-08-19T12:19:03;26.15;;;20.30;;
29280;SDS011;25048;49.590;11.026;2022-08-19T12:21:32;28.95;;;21.60;;
29280;SDS011;25048;49.590;11.026;2022-08-19T12:24:02;26.40;;;21.25;;
29280;SDS011;25048;49.590;11.026;2022-08-19T12:26:31;30.17;;;22.13;;
29280;SDS011;25048;49.590;11.026;2022-08-19T12:28:58;30.02;;;23.20;;
29280;SDS011;25048;49.590;11.026;2022-08-19T12:31:27;31.23;;;23.20;;
29280;SDS011;25048;49.590;11.026;2022-08-19T12:33:55;29.60;;;23.32;;
29280;SDS011;25048;49.590;11.026;2022-08-19T12:36:23;39.60;;;25.35;;
29280;SDS011;25048;49.590;11.026;2022-08-19T12:38:51;29.15;;;23.25;;
29280;SDS011;25048;49.590;11.026;2022-08-19T12:41:19;32.70;;;23.45;;
29280;SDS011;25048;49.590;11.026;2022-08-19T12:43:48;34.38;;;23.77;;
29280;SDS011;25048;49.590;11.026;2022-08-19T12:46:16;36.77;;;25.92;;
29280;SDS011;25048;49.590;11.026;2022-08-19T12:48:45;37.53;;;25.02;;
29280;SDS011;25048;49.590;11.026;2022-08-19T12:51:14;31.52;;;24.50;;
29280;SDS011;25048;49.590;11.026;2022-08-19T12:53:45;28.10;;;23.40;;
29280;SDS011;25048;49.590;11.026;2022-08-19T12:56:13;31.48;;;24.37;;
29280;SDS011;25048;49.590;11.026;2022-08-19T12:58:41;34.30;;;24.37;;
29280;SDS011;25048;49.590;11.026;2022-08-19T13:01:13;31.97;;;23.90;;
29280;SDS011;25048;49.590;11.026;2022-08-19T13:03:42;33.88;;;25.60;;
29280;SDS011;25048;49.590;11.026;2022-08-19T13:06:12;35.25;;;26.27;;
29280;SDS011;25048;49.590;11.026;2022-08-19T13:08:40;38.35;;;26.52;;
29280;SDS011;25048;49.590;11.026;2022-08-19T13:11:12;39.35;;;27.85;;
29280;SDS011;25048;49.590;11.026;2022-08-19T13:13:44;36.77;;;26.65;;
29280;SDS011;25048;49.590;11.026;2022-08-19T13:16:13;40.60;;;28.07;;
29280;SDS011;25048;49.590;11.026;2022-08-19T13:18:42;38.78;;;28.15;;
29280;SDS011;25048;49.590;11.026;2022-08-19T13:21:13;40.20;;;29.23;;
29280;SDS011;25048;49.590;11.026;2022-08-19T13:23:41;41.80;;;30.12;;
29280;SDS011;25048;49.590;11.026;2022-08-19T13:26:10;39.35;;;29.07;;
29280;SDS011;25048;49.590;11.026;2022-08-19T13:28:39;42.70;;;29.72;;
29280;SDS011;25048;49.590;11.026;2022-08-19T13:31:26;39.73;;;30.20;;
29280;SDS011;25048;49.590;11.026;2022-08-19T13:34:13;43.92;;;29.55;;
29280;SDS011;25048;49.590;11.026;2022-08-19T13:36:42;44.58;;;32.45;;
29280;SDS011;25048;49.590;11.026;2022-08-19T13:39:10;39.90;;;31.77;;
29280;SDS011;25048;49.590;11.026;2022-08-19T13:41:42;42.98;;;31.00;;
29280;SDS011;25048;49.590;11.026;2022-08-19T13:44:08;43.02;;;31.02;;
29280;SDS011;25048;49.590;11.026;2022-08-19T13:46:36;47.10;;;33.23;;
29280;SDS011;25048;49.590;11.026;2022-08-19T13:49:03;43.93;;;32.87;;
29280;SDS011;25048;49.590;11.026;2022-08-19T13:51:31;43.98;;;31.30;;
29280;SDS011;25048;49.590;11.026;2022-08-19T13:53:58;48.87;;;32.05;;
29280;SDS011;25048;49.590;11.026;2022-08-19T13:56:26;40.15;;;30.00;;
29280;SDS011;25048;49.590;11.026;2022-08-19T13:58:53;42.67;;;30.48;;
29280;SDS011;25048;49.590;11.026;2022-08-19T14:01:21;40.35;;;27.80;;
29280;SDS011;25048;49.590;11.026;2022-08-19T14:03:50;35.73;;;25.92;;
29280;SDS011;25048;49.590;11.026;2022-08-19T14:06:18;28.20;;;22.65;;
29280;SDS011;25048;49.590;11.026;2022-08-19T14:08:48;30.43;;;22.27;;
29280;SDS011;25048;49.590;11.026;2022-08-19T14:11:15;27.90;;;21.12;;
29280;SDS011;25048;49.590;11.026;2022-08-19T14:13:43;24.02;;;19.30;;
29280;SDS011;25048;49.590;11.026;2022-08-19T14:16:11;22.32;;;16.40;;
29280;SDS011;25048;49.590;11.026;2022-08-19T14:18:40;23.05;;;17.70;;
29280;SDS011;25048;49.590;11.026;2022-08-19T14:21:11;19.82;;;16.23;;
29280;SDS011;25048;49.590;11.026;2022-08-19T14:23:41;18.00;;;16.10;;
29280;SDS011;25048;49.590;11.026;2022-08-19T14:26:11;18.25;;;15.20;;
29280;SDS011;25048;49.590;11.026;2022-08-19T14:28:40;19.65;;;15.20;;
29280;SDS011;25048;49.590;11.026;2022-08-19T14:31:10;19.10;;;15.60;;
29280;SDS011;25048;49.590;11.026;2022-08-19T14:33:39;19.40;;;15.48;;